Time,TemperatureF,DewpointF,PressureIn,WindDirection,WindDirectionDegrees,WindSpeedMPH,WindSpeedGustMPH,Humidity,HourlyPrecipIn,Conditions,Clouds,dailyrainin,SoftwareType,DateUTC
2013-03-03 00:01:00,26.0,12.0,30.16,South,190,0.0,3.0,54,0.00,,,0.00,,2013-03-03 06:01:00,
2013-03-03 00:11:00,26.0,12.0,30.16,South,190,0.0,3.0,54,0.00,,,0.00,,2013-03-03 06:11:00,
2013-03-03 00:21:00,26.0,11.0,30.16,SSW,207,0.0,3.0,53,0.00,,,0.00,,2013-03-03 06:21:00,
2013-03-03 00:31:00,26.0,11.0,30.16,WSW,239,0.0,3.0,53,0.00,,,0.00,,2013-03-03 06:31:00,
2013-03-03 00:42:00,26.0,11.0,30.16,WSW,239,0.0,3.0,53,0.00,,,0.00,,2013-03-03 06:42:00,
2013-03-03 00:52:00,26.0,11.0,30.16,SSW,192,2.0,3.0,53,0.00,,,0.00,,2013-03-03 06:52:00,
2013-03-03 01:01:00,26.0,11.0,30.16,South,191,0.0,4.0,53,0.00,,,0.00,,2013-03-03 07:01:00,
2013-03-03 01:11:00,26.0,11.0,30.16,South,191,0.0,4.0,53,0.00,,,0.00,,2013-03-03 07:11:00,
2013-03-03 01:52:00,25.0,10.0,30.13,SE,124,0.0,3.0,53,0.00,,,0.00,,2013-03-03 07:52:00,
2013-03-03 02:01:00,25.0,10.0,30.13,SE,124,0.0,3.0,53,0.00,,,0.00,,2013-03-03 08:01:00,
2013-03-03 02:11:00,25.0,10.0,30.13,SE,124,0.0,3.0,53,0.00,,,0.00,,2013-03-03 08:11:00,
2013-03-03 02:21:00,25.0,11.0,30.13,SSE,154,0.0,3.0,54,0.00,,,0.00,,2013-03-03 08:21:00,
2013-03-03 02:31:00,25.0,11.0,30.13,SSE,162,0.0,3.0,54,0.00,,,0.00,,2013-03-03 08:31:00,
2013-03-03 02:41:00,25.0,11.0,30.13,SSE,162,0.0,3.0,54,0.00,,,0.00,,2013-03-03 08:41:00,
2013-03-03 02:54:00,25.0,11.0,30.13,WSW,244,0.0,4.0,55,0.00,,,0.00,,2013-03-03 08:54:00,
2013-03-03 03:01:00,25.0,11.0,30.13,SW,217,0.0,4.0,55,0.00,,,0.00,,2013-03-03 09:01:00,
2013-03-03 03:11:00,25.0,11.0,30.13,SW,217,0.0,4.0,55,0.00,,,0.00,,2013-03-03 09:11:00,
2013-03-03 03:21:00,25.0,11.0,30.13,SW,217,0.0,4.0,55,0.00,,,0.00,,2013-03-03 09:21:00,
2013-03-03 03:32:00,25.0,11.0,30.10,SSW,199,4.0,6.0,54,0.00,,,0.00,,2013-03-03 09:32:00,
2013-03-03 03:41:00,25.0,11.0,30.10,SSW,199,4.0,6.0,54,0.00,,,0.00,,2013-03-03 09:41:00,
2013-03-03 03:51:00,25.0,11.0,30.10,SSW,194,4.0,6.0,54,0.00,,,0.00,,2013-03-03 09:51:00,
2013-03-03 04:01:00,24.0,10.0,30.10,SSE,168,3.0,6.0,54,0.00,,,0.00,,2013-03-03 10:01:00,
2013-03-03 04:11:00,24.0,10.0,30.10,SSE,168,3.0,6.0,54,0.00,,,0.00,,2013-03-03 10:11:00,
2013-03-03 04:21:00,24.0,10.0,30.07,WSW,252,0.0,5.0,54,0.00,,,0.00,,2013-03-03 10:21:00,
2013-03-03 04:32:00,24.0,10.0,30.07,SSW,199,0.0,5.0,54,0.00,,,0.00,,2013-03-03 10:32:00,
2013-03-03 04:42:00,24.0,10.0,30.07,SSW,199,0.0,5.0,54,0.00,,,0.00,,2013-03-03 10:42:00,
2013-03-03 04:52:00,24.0,10.0,30.07,South,189,0.0,3.0,54,0.00,,,0.00,,2013-03-03 10:52:00,
2013-03-03 05:01:00,24.0,10.0,30.10,South,181,3.0,4.0,54,0.00,,,0.00,,2013-03-03 11:01:00,
2013-03-03 05:11:00,24.0,10.0,30.10,South,181,3.0,4.0,54,0.00,,,0.00,,2013-03-03 11:11:00,
2013-03-03 05:21:00,24.0,10.0,30.07,South,187,3.0,6.0,54,0.00,,,0.00,,2013-03-03 11:21:00,
2013-03-03 05:32:00,24.0,10.0,30.07,SSE,160,0.0,3.0,55,0.00,,,0.00,,2013-03-03 11:32:00,
2013-03-03 05:42:00,24.0,10.0,30.07,SSE,160,0.0,3.0,55,0.00,,,0.00,,2013-03-03 11:42:00,
2013-03-03 05:52:00,24.0,10.0,30.07,SSE,161,2.0,3.0,54,0.00,,,0.00,,2013-03-03 11:52:00,
2013-03-03 06:01:00,23.0,9.0,30.07,SSE,155,4.0,4.0,54,0.00,,,0.00,,2013-03-03 12:01:00,
2013-03-03 06:11:00,23.0,9.0,30.07,SSE,155,4.0,4.0,54,0.00,,,0.00,,2013-03-03 12:11:00,
2013-03-03 06:21:00,23.0,9.0,30.07,SSE,149,0.0,3.0,54,0.00,,,0.00,,2013-03-03 12:21:00,
2013-03-03 06:32:00,23.0,9.0,30.07,SSE,149,0.0,3.0,54,0.00,,,0.00,,2013-03-03 12:32:00,
2013-03-03 06:42:00,23.0,9.0,30.07,SSE,149,0.0,3.0,54,0.00,,,0.00,,2013-03-03 12:42:00,
2013-03-03 06:53:00,22.0,8.0,30.07,South,180,2.0,5.0,54,0.00,,,0.00,,2013-03-03 12:53:00,
2013-03-03 07:01:00,22.0,8.0,30.07,South,178,3.0,5.0,55,0.00,,,0.00,,2013-03-03 13:01:00,
2013-03-03 07:11:00,22.0,8.0,30.07,South,178,3.0,5.0,55,0.00,,,0.00,,2013-03-03 13:11:00,
2013-03-03 07:21:00,22.0,8.0,30.07,South,178,3.0,5.0,55,0.00,,,0.00,,2013-03-03 13:21:00,
2013-03-03 07:32:00,22.0,8.0,30.07,South,178,3.0,5.0,55,0.00,,,0.00,,2013-03-03 13:32:00,
2013-03-03 07:42:00,23.0,10.0,30.07,South,173,6.0,9.0,57,0.00,,,0.00,,2013-03-03 13:42:00,
2013-03-03 07:52:00,23.0,10.0,30.07,SSE,149,2.0,5.0,57,0.00,,,0.00,,2013-03-03 13:52:00,
2013-03-03 08:02:00,23.0,10.0,30.07,South,173,6.0,9.0,57,0.00,,,0.00,,2013-03-03 14:02:00,
2013-03-03 08:11:00,23.0,10.0,30.07,South,173,6.0,9.0,57,0.00,,,0.00,,2013-03-03 14:11:00,
2013-03-03 08:21:00,23.0,10.0,30.07,South,173,6.0,9.0,57,0.00,,,0.00,,2013-03-03 14:21:00,
2013-03-03 08:32:00,23.0,10.0,30.07,South,173,6.0,9.0,57,0.00,,,0.00,,2013-03-03 14:32:00,
2013-03-03 08:52:00,24.0,11.0,30.07,South,183,3.0,6.0,57,0.00,,,0.00,,2013-03-03 14:52:00,
2013-03-03 09:01:00,24.0,11.0,30.07,SSE,160,2.0,6.0,56,0.00,,,0.00,,2013-03-03 15:01:00,
2013-03-03 09:11:00,24.0,11.0,30.07,SSE,160,2.0,6.0,56,0.00,,,0.00,,2013-03-03 15:11:00,
2013-03-03 09:22:00,25.0,12.0,30.07,SSW,200,5.0,7.0,56,0.00,,,0.00,,2013-03-03 15:22:00,
2013-03-03 09:32:00,25.0,12.0,30.07,SSW,200,5.0,7.0,56,0.00,,,0.00,,2013-03-03 15:32:00,
2013-03-03 09:42:00,25.0,12.0,30.07,SSW,200,5.0,7.0,56,0.00,,,0.00,,2013-03-03 15:42:00,
2013-03-03 09:52:00,28.0,10.0,30.07,SSW,196,7.0,10.0,47,0.00,,,0.00,,2013-03-03 15:52:00,
2013-03-03 10:01:00,28.0,10.0,30.07,SSW,196,7.0,10.0,47,0.00,,,0.00,,2013-03-03 16:01:00,
2013-03-03 10:12:00,28.0,10.0,30.07,SSW,196,7.0,10.0,47,0.00,,,0.00,,2013-03-03 16:12:00,
2013-03-03 10:21:00,29.0,10.0,30.04,SSW,205,8.0,12.0,45,0.00,,,0.00,,2013-03-03 16:21:00,
2013-03-03 10:32:00,29.0,10.0,30.04,SSW,205,8.0,12.0,45,0.00,,,0.00,,2013-03-03 16:32:00,
2013-03-03 10:42:00,29.0,10.0,30.04,SSW,205,8.0,12.0,45,0.00,,,0.00,,2013-03-03 16:42:00,
2013-03-03 10:52:00,30.0,10.0,30.04,SSW,199,6.0,10.0,43,0.00,,,0.00,,2013-03-03 16:52:00,
2013-03-03 11:01:00,30.0,10.0,30.04,SSW,199,6.0,10.0,43,0.00,,,0.00,,2013-03-03 17:01:00,
2013-03-03 11:11:00,31.0,11.0,30.04,SSW,192,5.0,8.0,43,0.00,,,0.00,,2013-03-03 17:11:00,
2013-03-03 11:22:00,31.0,11.0,30.04,SSW,192,5.0,8.0,43,0.00,,,0.00,,2013-03-03 17:22:00,
2013-03-03 11:32:00,32.0,12.0,30.04,WSW,249,4.0,8.0,42,0.00,,,0.00,,2013-03-03 17:32:00,
2013-03-03 11:42:00,32.0,12.0,30.04,WSW,249,4.0,8.0,42,0.00,,,0.00,,2013-03-03 17:42:00,
2013-03-03 11:52:00,32.0,11.0,30.04,SW,215,7.0,12.0,41,0.00,,,0.00,,2013-03-03 17:52:00,
2013-03-03 12:01:00,33.0,12.0,30.01,South,169,6.0,12.0,41,0.00,,,0.00,,2013-03-03 18:01:00,
2013-03-03 12:11:00,33.0,12.0,30.01,South,169,6.0,12.0,41,0.00,,,0.00,,2013-03-03 18:11:00,
2013-03-03 12:21:00,33.0,12.0,30.01,SSW,197,4.0,9.0,41,0.00,,,0.00,,2013-03-03 18:21:00,
2013-03-03 12:32:00,33.0,12.0,30.01,North,356,5.0,9.0,41,0.00,,,0.00,,2013-03-03 18:32:00,
2013-03-03 12:42:00,33.0,12.0,30.01,North,356,5.0,9.0,41,0.00,,,0.00,,2013-03-03 18:42:00,
2013-03-03 12:52:00,33.0,12.0,30.01,North,356,5.0,9.0,41,0.00,,,0.00,,2013-03-03 18:52:00,
2013-03-03 13:01:00,33.0,12.0,30.01,North,356,5.0,9.0,41,0.00,,,0.00,,2013-03-03 19:01:00,
2013-03-03 13:11:00,34.0,12.0,29.98,SSW,202,6.0,11.0,40,0.00,,,0.00,,2013-03-03 19:11:00,
2013-03-03 13:21:00,34.0,12.0,29.98,SSW,202,6.0,11.0,40,0.00,,,0.00,,2013-03-03 19:21:00,
2013-03-03 13:32:00,34.0,12.0,29.98,SSW,200,8.0,10.0,40,0.00,,,0.00,,2013-03-03 19:32:00,
2013-03-03 13:42:00,34.0,12.0,29.98,SSW,200,8.0,10.0,40,0.00,,,0.00,,2013-03-03 19:42:00,
2013-03-03 13:52:00,34.0,12.0,29.98,East,83,5.0,10.0,40,0.00,,,0.00,,2013-03-03 19:52:00,
2013-03-03 14:01:00,35.0,13.0,29.95,SSW,212,6.0,10.0,40,0.00,,,0.00,,2013-03-03 20:01:00,
2013-03-03 14:11:00,35.0,13.0,29.95,SSW,212,6.0,10.0,40,0.00,,,0.00,,2013-03-03 20:11:00,
2013-03-03 14:21:00,35.0,13.0,29.95,SSW,212,6.0,10.0,40,0.00,,,0.00,,2013-03-03 20:21:00,
2013-03-03 14:32:00,35.0,13.0,29.95,SSW,212,6.0,10.0,40,0.00,,,0.00,,2013-03-03 20:32:00,
2013-03-03 14:42:00,35.0,13.0,29.95,SSW,212,6.0,10.0,40,0.00,,,0.00,,2013-03-03 20:42:00,
2013-03-03 14:53:00,35.0,13.0,29.95,SSW,212,6.0,10.0,40,0.00,,,0.00,,2013-03-03 20:53:00,
2013-03-03 15:01:00,35.0,13.0,29.92,SSE,167,8.0,12.0,39,0.00,,,0.00,,2013-03-03 21:01:00,
2013-03-03 15:11:00,35.0,13.0,29.92,SSE,167,8.0,12.0,39,0.00,,,0.00,,2013-03-03 21:11:00,
2013-03-03 15:22:00,35.0,13.0,29.92,SSE,167,8.0,12.0,39,0.00,,,0.00,,2013-03-03 21:22:00,
2013-03-03 15:32:00,35.0,13.0,29.92,South,185,8.0,10.0,39,0.00,,,0.00,,2013-03-03 21:32:00,
2013-03-03 15:41:00,35.0,13.0,29.92,South,185,8.0,10.0,39,0.00,,,0.00,,2013-03-03 21:41:00,
2013-03-03 15:52:00,35.0,12.0,29.92,SSW,200,7.0,10.0,38,0.00,,,0.00,,2013-03-03 21:52:00,
2013-03-03 16:01:00,35.0,12.0,29.92,SSW,192,8.0,12.0,38,0.00,,,0.00,,2013-03-03 22:01:00,
2013-03-03 16:11:00,35.0,12.0,29.92,SSW,192,8.0,12.0,38,0.00,,,0.00,,2013-03-03 22:11:00,
2013-03-03 16:22:00,35.0,13.0,29.92,South,182,7.0,11.0,39,0.00,,,0.00,,2013-03-03 22:22:00,
2013-03-03 16:32:00,35.0,13.0,29.92,SW,217,4.0,13.0,39,0.00,,,0.00,,2013-03-03 22:32:00,
2013-03-03 16:42:00,35.0,13.0,29.92,SW,217,4.0,13.0,39,0.00,,,0.00,,2013-03-03 22:42:00,
2013-03-03 16:52:00,34.0,12.0,29.92,SE,128,3.0,8.0,40,0.00,,,0.00,,2013-03-03 22:52:00,
2013-03-03 17:01:00,34.0,12.0,29.92,South,186,4.0,10.0,40,0.00,,,0.00,,2013-03-03 23:01:00,
2013-03-03 17:11:00,34.0,12.0,29.92,South,186,4.0,10.0,40,0.00,,,0.00,,2013-03-03 23:11:00,
2013-03-03 17:21:00,34.0,12.0,29.92,South,176,9.0,13.0,40,0.00,,,0.00,,2013-03-03 23:21:00,
2013-03-03 17:31:00,34.0,12.0,29.92,SSW,203,8.0,10.0,40,0.00,,,0.00,,2013-03-03 23:31:00,
2013-03-03 17:41:00,34.0,12.0,29.92,SSW,203,8.0,10.0,40,0.00,,,0.00,,2013-03-03 23:41:00,
2013-03-03 17:52:00,33.0,11.0,29.92,SSW,193,7.0,13.0,40,0.00,,,0.00,,2013-03-03 23:52:00,
2013-03-03 18:01:00,33.0,11.0,29.92,SSE,168,6.0,13.0,40,0.00,,,0.00,,2013-03-04 00:01:00,
2013-03-03 18:11:00,33.0,11.0,29.92,SSE,168,6.0,13.0,40,0.00,,,0.00,,2013-03-04 00:11:00,
2013-03-03 18:21:00,33.0,12.0,29.89,SW,233,8.0,13.0,41,0.00,,,0.00,,2013-03-04 00:21:00,
2013-03-03 18:32:00,32.0,11.0,29.89,South,186,8.0,10.0,41,0.00,,,0.00,,2013-03-04 00:32:00,
2013-03-03 18:42:00,32.0,11.0,29.89,South,186,8.0,10.0,41,0.00,,,0.00,,2013-03-04 00:42:00,
2013-03-03 18:52:00,32.0,12.0,29.89,East,94,6.0,10.0,42,0.00,,,0.00,,2013-03-04 00:52:00,
2013-03-03 19:01:00,32.0,11.0,29.89,SSW,203,8.0,13.0,41,0.00,,,0.00,,2013-03-04 01:01:00,
2013-03-03 19:11:00,32.0,11.0,29.89,SSW,203,8.0,13.0,41,0.00,,,0.00,,2013-03-04 01:11:00,
2013-03-03 19:21:00,32.0,11.0,29.89,ESE,121,7.0,10.0,41,0.00,,,0.00,,2013-03-04 01:21:00,
2013-03-03 19:32:00,32.0,11.0,29.89,ESE,121,7.0,10.0,41,0.00,,,0.00,,2013-03-04 01:32:00,
2013-03-03 19:42:00,32.0,11.0,29.89,ESE,121,7.0,10.0,41,0.00,,,0.00,,2013-03-04 01:42:00,
2013-03-03 19:52:00,32.0,12.0,29.89,South,171,4.0,11.0,43,0.00,,,0.00,,2013-03-04 01:52:00,
2013-03-03 20:01:00,31.0,12.0,29.89,SSW,193,8.0,12.0,44,0.00,,,0.00,,2013-03-04 02:01:00,
2013-03-03 20:11:00,31.0,12.0,29.92,SSW,200,7.0,10.0,45,0.00,,,0.00,,2013-03-04 02:11:00,
2013-03-03 20:22:00,31.0,12.0,29.92,SSW,200,7.0,10.0,45,0.00,,,0.00,,2013-03-04 02:22:00,
2013-03-03 20:32:00,31.0,12.0,29.92,ESE,121,4.0,10.0,45,0.00,,,0.00,,2013-03-04 02:32:00,
2013-03-03 20:42:00,31.0,12.0,29.92,ESE,121,4.0,10.0,45,0.00,,,0.00,,2013-03-04 02:42:00,
2013-03-03 20:52:00,31.0,13.0,29.89,South,175,7.0,11.0,46,0.00,,,0.00,,2013-03-04 02:52:00,
2013-03-03 21:01:00,31.0,13.0,29.89,South,175,7.0,11.0,46,0.00,,,0.00,,2013-03-04 03:01:00,
2013-03-03 21:11:00,31.0,13.0,29.89,South,175,7.0,11.0,46,0.00,,,0.00,,2013-03-04 03:11:00,
2013-03-03 21:21:00,31.0,12.0,29.89,South,178,7.0,12.0,44,0.00,,,0.00,,2013-03-04 03:21:00,
2013-03-03 21:32:00,31.0,12.0,29.89,South,178,7.0,12.0,44,0.00,,,0.00,,2013-03-04 03:32:00,
2013-03-03 21:42:00,30.0,15.0,29.92,SSW,196,6.0,10.0,52,0.00,,,0.00,,2013-03-04 03:42:00,
2013-03-03 21:52:00,30.0,15.0,29.92,SSW,196,6.0,10.0,52,0.00,,,0.00,,2013-03-04 03:52:00,
2013-03-03 22:01:00,30.0,15.0,29.92,SSW,196,6.0,10.0,54,0.00,,,0.00,,2013-03-04 04:01:00,
2013-03-03 22:11:00,30.0,15.0,29.92,SSW,196,6.0,10.0,54,0.00,,,0.00,,2013-03-04 04:11:00,
2013-03-03 22:22:00,30.0,16.0,29.92,SSW,196,7.0,12.0,55,0.00,,,0.00,,2013-03-04 04:22:00,
2013-03-03 22:32:00,30.0,16.0,29.92,SSW,192,5.0,11.0,56,0.00,,,0.00,,2013-03-04 04:32:00,
2013-03-03 22:42:00,30.0,16.0,29.92,SSW,192,5.0,11.0,56,0.00,,,0.00,,2013-03-04 04:42:00,
2013-03-03 22:52:00,29.0,15.0,29.92,South,169,6.0,14.0,56,0.00,,,0.00,,2013-03-04 04:52:00,
2013-03-03 23:01:00,29.0,15.0,29.89,SSE,168,8.0,14.0,56,0.00,,,0.00,,2013-03-04 05:01:00,
2013-03-03 23:11:00,29.0,15.0,29.89,SSE,168,8.0,14.0,56,0.00,,,0.00,,2013-03-04 05:11:00,
2013-03-03 23:22:00,29.0,16.0,29.89,South,182,7.0,8.0,57,0.00,,,0.00,,2013-03-04 05:22:00,
2013-03-03 23:31:00,29.0,16.0,29.89,SSE,156,4.0,12.0,57,0.00,,,0.00,,2013-03-04 05:31:00,
2013-03-03 23:42:00,29.0,17.0,29.89,SSW,196,6.0,10.0,60,0.00,,,0.00,,2013-03-04 05:42:00,
2013-03-03 23:52:00,29.0,17.0,29.89,SSW,196,6.0,10.0,60,0.00,,,0.00,,2013-03-04 05:52:00,